createdAt,value
2023-04-07T12:08:42.237Z,51.80
2023-04-07T12:11:10.569Z,50.80
2023-04-07T12:17:05.182Z,48.00
2023-04-07T12:29:44.588Z,49.00
2023-04-07T12:32:12.472Z,48.50
2023-04-07T12:35:16.843Z,49.20
2023-04-07T12:50:52.758Z,50.00
2023-04-07T12:53:20.633Z,50.30
2023-04-07T12:55:50.223Z,50.20
2023-04-07T12:58:19.180Z,49.80
2023-04-07T13:00:49.523Z,49.80
2023-04-07T13:03:17.807Z,49.60
2023-04-07T13:05:45.473Z,49.50
2023-04-07T13:08:13.209Z,49.10
2023-04-07T13:10:40.972Z,48.80
2023-04-07T13:13:08.444Z,48.80
2023-04-07T13:15:36.234Z,46.50
2023-04-07T13:18:03.909Z,45.80
2023-04-07T13:20:31.488Z,46.50
2023-04-07T13:23:07.700Z,45.80
2023-04-07T13:25:37.602Z,46.30
2023-04-07T13:28:05.918Z,45.90
2023-04-07T13:30:33.700Z,45.60
2023-04-07T13:33:01.202Z,47.10
2023-04-07T13:35:31.122Z,47.10
2023-04-07T13:37:59.211Z,46.70
2023-04-07T13:40:26.638Z,46.60
2023-04-07T13:42:54.101Z,46.30
2023-04-07T13:45:21.660Z,46.20
2023-04-07T13:47:49.170Z,46.30
2023-04-07T13:50:16.832Z,46.70
2023-04-07T13:52:44.370Z,46.60
2023-04-07T13:55:12.002Z,46.50
2023-04-07T13:57:39.605Z,45.80
2023-04-07T14:00:07.706Z,45.70
2023-04-07T14:02:36.456Z,44.80
2023-04-07T14:05:04.498Z,45.50
2023-04-07T14:07:32.313Z,45.00
2023-04-07T14:09:59.807Z,44.70
2023-04-07T14:12:27.527Z,44.80
2023-04-07T14:14:55.122Z,45.30
2023-04-07T14:17:22.853Z,45.90
2023-04-07T14:19:50.742Z,45.80
2023-04-07T14:22:18.500Z,46.10
2023-04-07T14:24:45.994Z,46.60
2023-04-07T14:27:14.275Z,46.60
2023-04-07T14:29:41.742Z,45.50
2023-04-07T14:32:09.376Z,46.50
2023-04-07T14:35:11.375Z,46.10
2023-04-07T14:37:38.917Z,43.40
2023-04-07T14:40:06.808Z,43.80
2023-04-07T14:42:35.891Z,44.50
2023-04-07T14:45:04.632Z,44.30
2023-04-07T14:48:04.361Z,43.50
2023-04-07T14:50:32.462Z,43.00
2023-04-07T14:53:00.219Z,43.50
2023-04-07T14:55:27.844Z,44.10
2023-04-07T14:57:55.634Z,43.80
2023-04-07T15:00:25.381Z,43.70
2023-04-07T15:02:54.442Z,43.60
2023-04-07T15:05:27.977Z,43.60
2023-04-07T15:07:55.523Z,43.10
2023-04-07T15:10:22.943Z,42.90
2023-04-07T15:12:50.640Z,42.00
2023-04-07T15:15:18.154Z,42.40
2023-04-07T15:17:45.803Z,42.70
2023-04-07T15:20:13.634Z,42.90
2023-04-07T15:22:41.235Z,42.40
2023-04-07T15:25:08.855Z,42.00
2023-04-07T15:27:36.398Z,41.20
2023-04-07T15:30:03.960Z,40.50
2023-04-07T15:32:32.044Z,40.60
2023-04-07T15:34:59.593Z,41.00
2023-04-07T15:37:27.055Z,40.80
2023-04-07T15:39:54.465Z,40.90
2023-04-07T15:42:21.918Z,41.40
2023-04-07T15:44:50.238Z,39.60
2023-04-07T15:47:17.660Z,39.70
2023-04-07T15:49:45.257Z,40.60
2023-04-07T15:52:13.887Z,41.00
2023-04-07T15:54:41.333Z,41.30
2023-04-07T15:57:08.762Z,40.90
2023-04-07T15:59:36.319Z,40.30
2023-04-07T16:02:04.004Z,40.40
2023-04-07T16:04:31.533Z,39.80
2023-04-07T16:06:59.135Z,39.00
2023-04-07T16:09:27.063Z,39.00
2023-04-07T16:11:55.077Z,39.10
2023-04-07T16:14:22.593Z,39.50
2023-04-07T16:16:53.738Z,39.70
2023-04-07T16:19:21.623Z,40.10
2023-04-07T16:21:49.098Z,40.20
2023-04-07T16:24:16.532Z,39.80
2023-04-07T16:26:44.183Z,39.90
2023-04-07T16:29:11.646Z,40.00
2023-04-07T16:31:39.136Z,39.40
2023-04-07T16:34:06.703Z,39.50
2023-04-07T16:36:34.170Z,40.10
2023-04-07T16:39:01.621Z,40.30
2023-04-07T16:41:29.184Z,40.10
2023-04-07T16:43:56.626Z,40.30
2023-04-07T16:46:26.123Z,40.30
2023-04-07T16:48:54.016Z,40.20
2023-04-07T16:51:21.660Z,40.10
2023-04-07T16:53:49.362Z,39.90
2023-04-07T16:56:17.512Z,40.20
2023-04-07T16:58:45.037Z,40.20
2023-04-07T17:01:12.584Z,40.50
2023-04-07T17:03:40.817Z,40.50
2023-04-07T17:06:08.337Z,39.60
2023-04-07T17:08:36.436Z,39.70
2023-04-07T17:11:07.483Z,39.30
2023-04-07T17:13:35.288Z,39.10
2023-04-07T17:16:03.489Z,38.70
2023-04-07T17:18:32.446Z,39.10
2023-04-07T17:20:59.879Z,39.30
2023-04-07T17:23:28.412Z,39.50
2023-04-07T17:25:55.903Z,39.10
2023-04-07T17:28:23.345Z,39.50
2023-04-07T17:30:50.940Z,39.90
2023-04-07T17:33:18.583Z,40.30
2023-04-07T17:35:47.819Z,39.90
2023-04-07T17:38:15.904Z,38.40
2023-04-07T17:40:43.468Z,37.50
2023-04-07T17:43:11.341Z,37.80
2023-04-07T17:45:38.794Z,38.60
2023-04-07T17:48:11.996Z,38.70
2023-04-07T17:50:39.815Z,38.30
2023-04-07T17:53:07.836Z,38.00
2023-04-07T17:55:35.247Z,38.30
2023-04-07T17:58:02.706Z,37.90
2023-04-07T18:00:30.212Z,37.50
2023-04-07T18:02:57.950Z,37.60
2023-04-07T18:05:26.065Z,38.00
2023-04-07T18:07:54.917Z,38.20
2023-04-07T18:10:22.382Z,38.20
2023-04-07T18:12:49.831Z,37.60
2023-04-07T18:15:17.407Z,37.80
2023-04-07T18:17:44.945Z,38.20
2023-04-07T18:20:13.221Z,38.60
2023-04-07T18:22:41.088Z,39.00
2023-04-07T18:25:09.617Z,39.10
2023-04-07T18:27:37.098Z,39.00
2023-04-07T18:30:04.863Z,39.40
2023-04-07T18:32:32.408Z,39.80
2023-04-07T18:34:59.909Z,40.20
2023-04-07T18:37:27.517Z,40.80
2023-04-07T18:39:55.222Z,41.40
2023-04-07T18:42:23.115Z,42.00
2023-04-07T18:45:03.211Z,42.70
